Weather at Damascus International Airport

Public forecast

Using degrees Celsius for public forecast. Weather courtesy of forecast.io.

Current aviation weather report (METAR) for Damascus International Airport

Report is more than 6 hours old.

2022/11/14 15:10 (retrieved 2 years ago)

OSDI 141510Z 12010KT 7000 TS FEW020 CB BKN030 Q1019

Aviation forecast (TAF) for Damascus International Airport

Forecast is more than 12 hours old.

2023/02/22 18:30 (retrieved 1 year ago)

TAF OSDI 221625Z 2218/2324 33010KT CAVOK